createdAt,value
2018-02-16T00:01:57.563Z,68.14
2018-02-16T00:04:25.187Z,69.04
2018-02-16T00:06:52.751Z,69.53
2018-02-16T00:09:20.382Z,69.72
2018-02-16T00:11:48.010Z,69.87
2018-02-16T00:14:15.686Z,69.81
2018-02-16T00:16:43.323Z,70.37
2018-02-16T00:19:10.962Z,71.39
2018-02-16T00:21:38.603Z,71.82
2018-02-16T00:24:06.343Z,72.01
2018-02-16T00:26:33.922Z,72.57
2018-02-16T00:29:01.554Z,72.95
2018-02-16T00:31:29.131Z,72.96
2018-02-16T00:33:56.714Z,72.78
2018-02-16T00:36:24.334Z,72.71
2018-02-16T00:38:51.972Z,73.10
2018-02-16T00:41:19.602Z,73.46
2018-02-16T00:43:47.182Z,73.14
2018-02-16T00:46:14.819Z,73.19
2018-02-16T00:48:42.445Z,73.28
2018-02-16T00:51:10.056Z,73.16
2018-02-16T00:53:37.638Z,74.03
2018-02-16T00:56:05.222Z,74.16
2018-02-16T00:58:32.851Z,74.34
2018-02-16T01:01:00.482Z,74.55
2018-02-16T01:03:28.062Z,74.69
2018-02-16T01:05:55.634Z,75.04
2018-02-16T01:08:23.212Z,75.20
2018-02-16T01:10:50.864Z,75.50
2018-02-16T01:13:18.500Z,75.87
2018-02-16T01:15:46.070Z,76.07
2018-02-16T01:18:13.703Z,76.42
2018-02-16T01:20:41.281Z,76.64
2018-02-16T01:23:08.919Z,76.78
2018-02-16T01:25:36.614Z,76.74
2018-02-16T01:28:04.242Z,76.64
2018-02-16T01:30:31.830Z,76.83
2018-02-16T01:32:59.466Z,76.94
2018-02-16T01:35:27.038Z,76.94
2018-02-16T01:37:54.643Z,76.66
2018-02-16T01:40:22.214Z,76.52
2018-02-16T01:42:49.797Z,76.51
2018-02-16T01:45:17.374Z,76.75
2018-02-16T01:47:44.986Z,76.84
2018-02-16T01:50:12.687Z,76.95
2018-02-16T01:52:40.318Z,76.81
2018-02-16T01:55:07.900Z,76.55
2018-02-16T01:57:35.547Z,76.45
2018-02-16T02:00:03.281Z,75.91
2018-02-16T02:02:30.923Z,75.60
2018-02-16T02:04:58.499Z,75.73
2018-02-16T02:07:26.070Z,75.79
2018-02-16T02:09:53.656Z,75.50
2018-02-16T02:12:21.234Z,75.33
2018-02-16T02:14:48.866Z,75.20
2018-02-16T02:17:16.448Z,75.10
2018-02-16T02:19:44.087Z,75.08
2018-02-16T02:22:11.647Z,75.48
2018-02-16T02:24:39.268Z,75.19
2018-02-16T02:27:06.956Z,74.82
2018-02-16T02:29:34.540Z,74.67
2018-02-16T02:32:02.177Z,74.84
2018-02-16T02:34:29.753Z,74.16
2018-02-16T02:36:57.334Z,73.97
2018-02-16T02:39:24.964Z,73.41
2018-02-16T02:41:52.591Z,73.54
2018-02-16T02:44:20.215Z,73.90
2018-02-16T02:46:47.803Z,74.26
2018-02-16T02:49:15.439Z,74.55
2018-02-16T02:51:43.132Z,74.52
2018-02-16T02:54:10.702Z,73.90
2018-02-16T02:56:38.269Z,74.23
2018-02-16T02:59:05.905Z,74.38
2018-02-16T03:01:33.530Z,74.75
2018-02-16T03:04:01.169Z,74.96
2018-02-16T03:06:32.614Z,75.59
2018-02-16T03:09:00.208Z,75.29
2018-02-16T03:11:27.859Z,75.23
2018-02-16T03:13:55.425Z,75.08
2018-02-16T03:16:23.110Z,74.93
2018-02-16T03:18:50.677Z,74.97
2018-02-16T03:21:18.313Z,75.00
2018-02-16T03:23:45.955Z,75.09
2018-02-16T03:26:13.526Z,75.13
2018-02-16T03:28:41.158Z,75.15
2018-02-16T03:31:08.734Z,74.91
2018-02-16T03:33:36.302Z,74.80
2018-02-16T03:36:03.892Z,74.71
2018-02-16T03:38:31.515Z,74.71
2018-02-16T03:40:59.156Z,74.53
2018-02-16T03:43:26.730Z,74.54
2018-02-16T03:45:54.366Z,74.49
2018-02-16T03:48:21.941Z,74.40
2018-02-16T03:50:49.509Z,74.48
2018-02-16T03:53:17.143Z,74.65
2018-02-16T03:55:44.778Z,75.23
2018-02-16T03:58:12.350Z,76.39
2018-02-16T04:00:39.921Z,76.82
2018-02-16T04:03:07.550Z,76.89
2018-02-16T04:05:35.242Z,76.65
2018-02-16T04:08:02.881Z,76.21
2018-02-16T04:10:30.455Z,75.78
2018-02-16T04:12:58.034Z,75.31
2018-02-16T04:15:25.739Z,75.33
2018-02-16T04:17:53.363Z,75.18
2018-02-16T04:20:20.931Z,75.88
2018-02-16T04:22:48.516Z,75.99
2018-02-16T04:25:16.140Z,75.99
2018-02-16T04:27:43.770Z,75.88
2018-02-16T04:30:11.407Z,75.58
2018-02-16T04:32:38.989Z,75.45
2018-02-16T04:35:08.382Z,75.59
2018-02-16T04:37:36.159Z,75.27
2018-02-16T04:40:03.731Z,75.03
2018-02-16T04:42:31.364Z,74.59
2018-02-16T04:44:58.935Z,74.80
2018-02-16T04:47:26.486Z,74.75
2018-02-16T04:49:54.078Z,74.52
2018-02-16T04:52:21.710Z,74.41
2018-02-16T04:54:49.409Z,74.36
2018-02-16T04:57:17.028Z,74.24
2018-02-16T04:59:44.597Z,74.34
2018-02-16T05:02:12.193Z,75.20
2018-02-16T05:04:39.770Z,75.25
2018-02-16T05:07:07.404Z,75.06
2018-02-16T05:09:34.973Z,75.08
2018-02-16T05:12:02.543Z,75.50
2018-02-16T05:14:30.184Z,75.87
2018-02-16T05:16:57.758Z,75.72
2018-02-16T05:19:25.444Z,75.56
2018-02-16T05:21:53.084Z,75.57
2018-02-16T05:24:20.672Z,75.84
2018-02-16T05:26:48.244Z,75.81
2018-02-16T05:29:15.815Z,76.07
2018-02-16T05:31:43.510Z,75.71
2018-02-16T05:37:09.366Z,75.74
2018-02-16T05:39:36.997Z,75.82
2018-02-16T05:42:04.574Z,76.12
2018-02-16T05:44:32.218Z,76.56
2018-02-16T05:46:59.785Z,77.18
2018-02-16T05:49:27.418Z,76.30
2018-02-16T05:51:54.981Z,76.03
2018-02-16T05:54:22.549Z,76.05
2018-02-16T05:56:50.121Z,76.17
2018-02-16T05:59:17.772Z,76.29
2018-02-16T06:01:45.410Z,76.09
2018-02-16T06:04:13.060Z,75.72
2018-02-16T06:06:40.647Z,75.48
2018-02-16T06:09:08.398Z,75.70
2018-02-16T06:11:36.022Z,75.95
2018-02-16T06:14:03.710Z,75.54
2018-02-16T06:16:31.282Z,75.29
2018-02-16T06:18:58.854Z,75.04
2018-02-16T06:21:26.444Z,74.53
2018-02-16T06:23:54.010Z,74.26
2018-02-16T06:26:21.649Z,73.79
2018-02-16T06:28:49.292Z,73.48
2018-02-16T06:31:16.865Z,73.34
2018-02-16T06:33:44.458Z,72.57
2018-02-16T06:36:12.033Z,71.68
2018-02-16T06:38:39.662Z,72.22
2018-02-16T06:41:07.290Z,72.55
2018-02-16T06:43:34.872Z,72.08
2018-02-16T06:46:02.454Z,71.55
2018-02-16T06:48:30.077Z,71.47
2018-02-16T06:50:57.770Z,70.85
2018-02-16T06:53:25.352Z,70.41
2018-02-16T06:55:53.040Z,70.13
2018-02-16T06:58:20.680Z,69.75
2018-02-16T07:00:48.342Z,68.68
2018-02-16T07:03:15.961Z,66.19
2018-02-16T07:05:43.594Z,64.50
2018-02-16T07:08:11.227Z,63.62
2018-02-16T07:10:38.870Z,62.60
2018-02-16T07:13:06.447Z,63.84
2018-02-16T07:15:34.071Z,62.34
2018-02-16T07:18:01.639Z,61.12
2018-02-16T07:20:30.473Z,60.99
2018-02-16T07:22:58.118Z,60.53
2018-02-16T07:25:25.693Z,61.57
2018-02-16T07:27:53.327Z,62.14
2018-02-16T07:30:20.903Z,62.32
2018-02-16T07:32:48.488Z,62.63
2018-02-16T07:35:16.066Z,62.30
2018-02-16T07:37:43.704Z,62.82
2018-02-16T07:40:11.337Z,61.82
2018-02-16T07:42:38.905Z,61.75
2018-02-16T07:45:06.484Z,62.56
2018-02-16T07:47:34.068Z,62.18
2018-02-16T07:50:01.645Z,61.94
2018-02-16T07:52:29.263Z,61.82
2018-02-16T07:54:56.990Z,61.06
2018-02-16T07:57:24.594Z,61.20
2018-02-16T07:59:52.185Z,59.94
2018-02-16T08:02:20.408Z,60.00
2018-02-16T08:04:48.116Z,59.07
2018-02-16T08:07:15.777Z,59.68
2018-02-16T08:09:43.427Z,57.80
2018-02-16T08:12:11.063Z,58.11
2018-02-16T08:14:38.638Z,58.06
2018-02-16T08:17:06.261Z,56.99
2018-02-16T08:19:33.905Z,57.11
2018-02-16T08:22:01.479Z,59.50
2018-02-16T08:24:29.125Z,59.33
2018-02-16T08:26:56.697Z,60.81
2018-02-16T08:29:24.315Z,59.30
2018-02-16T08:31:51.890Z,59.13
2018-02-16T08:34:20.304Z,59.37
2018-02-16T08:36:47.886Z,57.75
2018-02-16T08:39:15.531Z,58.08
2018-02-16T08:41:43.168Z,58.36
2018-02-16T08:44:10.798Z,57.87
2018-02-16T08:46:38.393Z,56.64
2018-02-16T08:49:06.033Z,56.50
2018-02-16T08:51:33.601Z,57.19
2018-02-16T08:54:01.292Z,56.17
2018-02-16T08:56:28.870Z,56.06
2018-02-16T08:58:56.457Z,55.67
2018-02-16T09:01:24.124Z,55.63
2018-02-16T09:03:51.749Z,55.71
2018-02-16T09:06:19.370Z,56.02
2018-02-16T09:08:47.006Z,55.04
2018-02-16T09:11:14.597Z,55.09
2018-02-16T09:13:42.178Z,53.89
2018-02-16T09:16:09.755Z,53.82
2018-02-16T09:18:37.454Z,54.27
2018-02-16T09:21:05.087Z,53.26
2018-02-16T09:23:32.666Z,53.34
2018-02-16T09:26:00.270Z,53.41
2018-02-16T09:28:27.849Z,53.09
2018-02-16T09:30:55.482Z,52.56
2018-02-16T09:33:23.056Z,53.26
2018-02-16T09:35:52.234Z,51.11
2018-02-16T09:38:19.821Z,50.79
2018-02-16T09:40:47.394Z,49.97
2018-02-16T09:43:15.030Z,50.44
2018-02-16T09:45:42.611Z,50.02
2018-02-16T09:48:10.248Z,49.67
2018-02-16T09:50:37.891Z,49.77
2018-02-16T09:53:05.470Z,48.95
2018-02-16T09:55:33.112Z,49.14
2018-02-16T09:58:00.742Z,49.37
2018-02-16T10:00:28.333Z,50.27
2018-02-16T10:02:55.982Z,48.05
2018-02-16T10:05:23.610Z,48.67
2018-02-16T10:07:51.258Z,47.99
2018-02-16T10:10:18.890Z,47.94
2018-02-16T10:12:46.496Z,48.11
2018-02-16T10:15:14.142Z,47.56
2018-02-16T10:17:41.776Z,47.22
2018-02-16T10:20:09.466Z,46.70
2018-02-16T10:22:37.127Z,46.34
2018-02-16T10:25:04.704Z,46.42
2018-02-16T10:27:32.328Z,45.36
2018-02-16T10:29:59.973Z,45.27
2018-02-16T10:32:27.615Z,44.46
2018-02-16T10:34:55.185Z,44.77
2018-02-16T10:37:22.758Z,44.24
2018-02-16T10:39:50.343Z,44.16
2018-02-16T10:42:17.910Z,44.17
2018-02-16T10:44:45.544Z,43.45
2018-02-16T10:47:13.117Z,43.74
2018-02-16T10:49:40.749Z,40.04
2018-02-16T10:52:08.418Z,40.87
2018-02-16T10:54:35.986Z,42.31
2018-02-16T10:57:03.613Z,41.42
2018-02-16T10:59:31.248Z,41.37
2018-02-16T11:02:04.386Z,42.49
2018-02-16T11:04:37.473Z,42.13
2018-02-16T11:10:06.346Z,40.61
2018-02-16T11:12:33.981Z,40.41
2018-02-16T11:15:01.614Z,41.23
2018-02-16T11:17:29.182Z,40.79
2018-02-16T11:19:56.802Z,41.53
2018-02-16T11:22:24.429Z,42.34
2018-02-16T11:24:52.125Z,41.37
2018-02-16T11:27:19.695Z,40.69
2018-02-16T11:29:47.259Z,40.32
2018-02-16T11:32:14.876Z,40.86
2018-02-16T11:34:42.422Z,39.92
2018-02-16T11:37:10.046Z,39.55
2018-02-16T11:39:37.638Z,39.80
2018-02-16T11:42:05.202Z,39.40
2018-02-16T11:44:32.775Z,39.26
2018-02-16T11:47:00.351Z,38.38
2018-02-16T11:49:27.991Z,38.62
2018-02-16T11:51:55.568Z,38.13
2018-02-16T11:54:23.184Z,37.00
2018-02-16T11:56:50.826Z,39.82
2018-02-16T11:59:18.408Z,40.60
2018-02-16T12:01:46.037Z,41.80
2018-02-16T12:04:13.610Z,41.03
2018-02-16T12:06:41.315Z,40.15
2018-02-16T12:09:08.906Z,39.28
2018-02-16T12:11:36.469Z,38.71
2018-02-16T12:14:04.206Z,39.32
2018-02-16T12:16:31.784Z,38.73
2018-02-16T12:18:59.352Z,40.41
2018-02-16T12:21:27.008Z,41.58
2018-02-16T12:23:54.592Z,44.80
2018-02-16T12:26:22.283Z,43.78
2018-02-16T12:28:49.858Z,45.72
2018-02-16T12:31:17.430Z,45.86
2018-02-16T12:33:45.012Z,46.39
2018-02-16T12:36:12.596Z,47.59
2018-02-16T12:38:40.237Z,48.84
2018-02-16T12:41:07.809Z,47.82
2018-02-16T12:43:35.435Z,49.92
2018-02-16T12:46:03.071Z,50.21
2018-02-16T12:48:30.712Z,52.21
2018-02-16T12:50:58.360Z,52.58
2018-02-16T12:53:25.933Z,52.56
2018-02-16T12:55:53.515Z,52.64
2018-02-16T12:58:21.158Z,53.41
2018-02-16T13:00:48.735Z,52.73
2018-02-16T13:03:16.370Z,53.03
2018-02-16T13:05:43.995Z,53.16
2018-02-16T13:08:11.565Z,54.34
2018-02-16T13:10:39.149Z,54.27
2018-02-16T13:13:06.713Z,54.39
2018-02-16T13:15:34.349Z,54.58
2018-02-16T13:18:01.983Z,54.08
2018-02-16T13:20:29.558Z,55.54
2018-02-16T13:22:57.195Z,55.06
2018-02-16T13:25:24.797Z,55.53
2018-02-16T13:27:52.477Z,56.19
2018-02-16T13:30:20.104Z,56.06
2018-02-16T13:32:47.734Z,56.06
2018-02-16T13:35:15.325Z,55.57
2018-02-16T13:37:42.955Z,55.36
2018-02-16T13:40:10.605Z,55.99
2018-02-16T13:42:38.235Z,56.52
2018-02-16T13:45:05.802Z,56.05
2018-02-16T13:47:33.448Z,55.75
2018-02-16T13:50:01.101Z,56.32
2018-02-16T13:52:28.721Z,56.90
2018-02-16T13:54:56.306Z,55.92
2018-02-16T13:57:23.869Z,56.66
2018-02-16T13:59:51.478Z,55.77
2018-02-16T14:02:19.051Z,56.29
2018-02-16T14:04:46.681Z,56.23
2018-02-16T14:07:14.247Z,56.16
2018-02-16T14:09:41.817Z,56.44
2018-02-16T14:15:07.701Z,58.26
2018-02-16T14:17:35.333Z,57.06
2018-02-16T14:20:02.979Z,57.72
2018-02-16T14:22:30.755Z,57.57
2018-02-16T14:24:58.394Z,57.81
2018-02-16T14:27:26.025Z,57.57
2018-02-16T14:29:53.650Z,58.77
2018-02-16T14:32:21.279Z,58.54
2018-02-16T14:34:49.641Z,57.49
2018-02-16T14:37:17.297Z,58.31
2018-02-16T14:39:44.874Z,58.55
2018-02-16T14:42:12.498Z,58.30
2018-02-16T14:44:40.262Z,58.98
2018-02-16T14:47:07.935Z,59.63
2018-02-16T14:49:35.625Z,59.39
2018-02-16T14:52:03.195Z,59.54
2018-02-16T14:54:30.887Z,59.60
2018-02-16T14:56:58.450Z,60.28
2018-02-16T14:59:26.082Z,60.60
2018-02-16T15:01:53.669Z,61.28
2018-02-16T15:04:21.238Z,61.21
2018-02-16T15:06:48.834Z,61.49
2018-02-16T15:09:16.427Z,61.55
2018-02-16T15:11:44.066Z,62.31
2018-02-16T15:14:11.706Z,62.47
2018-02-16T15:16:39.339Z,62.44
2018-02-16T15:19:06.962Z,62.97
2018-02-16T15:21:34.546Z,63.69
2018-02-16T15:24:02.183Z,63.51
2018-02-16T15:26:29.758Z,64.57
2018-02-16T15:28:57.391Z,63.87
2018-02-16T15:31:25.034Z,64.05
2018-02-16T15:33:52.667Z,64.83
2018-02-16T15:36:20.256Z,65.40
2018-02-16T15:38:47.839Z,65.67
2018-02-16T15:41:15.491Z,65.96
2018-02-16T15:43:43.114Z,66.14
2018-02-16T15:46:10.682Z,66.95
2018-02-16T15:48:38.307Z,67.04
2018-02-16T15:51:06.107Z,67.21
2018-02-16T15:53:33.743Z,67.83
2018-02-16T15:56:01.443Z,68.09
2018-02-16T15:58:29.070Z,68.52
2018-02-16T16:00:56.697Z,68.87
2018-02-16T16:03:24.355Z,69.12
2018-02-16T16:05:51.955Z,69.78
2018-02-16T16:08:19.590Z,69.92
2018-02-16T16:10:47.159Z,70.22
2018-02-16T16:13:14.755Z,70.83
2018-02-16T16:15:42.433Z,71.74
2018-02-16T16:18:10.004Z,72.07
2018-02-16T16:20:37.694Z,71.95
2018-02-16T16:23:05.284Z,72.23
2018-02-16T16:25:32.926Z,72.70
2018-02-16T16:28:00.515Z,73.21
2018-02-16T16:30:28.147Z,73.38
2018-02-16T16:32:55.833Z,73.99
2018-02-16T16:35:23.476Z,73.70
2018-02-16T16:37:51.145Z,73.56
2018-02-16T16:40:18.721Z,73.81
2018-02-16T16:42:46.300Z,74.39
2018-02-16T16:45:13.930Z,74.92
2018-02-16T16:47:41.565Z,75.21
2018-02-16T16:50:09.196Z,75.63
2018-02-16T16:52:36.893Z,75.94
2018-02-16T16:55:04.572Z,76.36
2018-02-16T16:57:32.271Z,76.48
2018-02-16T16:59:59.847Z,76.60
2018-02-16T17:02:27.453Z,76.85
2018-02-16T17:04:55.027Z,77.07
2018-02-16T17:07:22.606Z,77.37
2018-02-16T17:09:50.302Z,77.58
2018-02-16T17:12:17.888Z,77.82
2018-02-16T17:14:45.499Z,77.87
2018-02-16T17:17:13.087Z,78.00
2018-02-16T17:19:40.681Z,78.26
2018-02-16T17:22:08.304Z,78.68
2018-02-16T17:24:35.875Z,78.87
2018-02-16T17:27:03.463Z,79.10
2018-02-16T17:29:31.051Z,79.10
2018-02-16T17:31:58.629Z,79.19
2018-02-16T17:34:26.269Z,79.24
2018-02-16T17:36:53.854Z,79.31
2018-02-16T17:39:21.485Z,79.42
2018-02-16T17:41:49.077Z,79.52
2018-02-16T17:44:16.716Z,79.85
2018-02-16T17:46:44.426Z,80.11
2018-02-16T17:49:12.017Z,80.18
2018-02-16T17:51:39.617Z,80.16
2018-02-16T17:54:07.403Z,80.20
2018-02-16T17:56:34.976Z,80.57
2018-02-16T17:59:02.626Z,80.87
2018-02-16T18:01:30.458Z,80.66
2018-02-16T18:03:58.094Z,80.58
2018-02-16T18:06:25.743Z,80.49
2018-02-16T18:08:53.375Z,80.48
2018-02-16T18:11:21.020Z,80.92
2018-02-16T18:13:48.594Z,81.35
2018-02-16T18:16:16.160Z,81.43
2018-02-16T18:18:43.734Z,81.57
2018-02-16T18:21:11.384Z,81.89
2018-02-16T18:23:39.015Z,81.81
2018-02-16T18:26:06.585Z,81.73
2018-02-16T18:28:34.151Z,81.67
2018-02-16T18:31:01.733Z,81.49
2018-02-16T18:33:29.302Z,81.47
2018-02-16T18:35:56.939Z,81.53
2018-02-16T18:38:24.514Z,81.42
2018-02-16T18:40:52.078Z,81.74
2018-02-16T18:43:19.716Z,81.86
2018-02-16T18:45:47.343Z,82.12
2018-02-16T18:48:14.974Z,82.25
2018-02-16T18:50:42.564Z,82.38
2018-02-16T18:53:10.143Z,82.42
2018-02-16T18:55:37.777Z,82.43
2018-02-16T18:58:05.353Z,82.46
2018-02-16T19:00:32.981Z,82.59
2018-02-16T19:03:00.618Z,82.62
2018-02-16T19:05:28.269Z,82.72
2018-02-16T19:07:55.852Z,82.65
2018-02-16T19:10:23.403Z,82.55
2018-02-16T19:12:51.107Z,82.54
2018-02-16T19:15:18.854Z,82.87
2018-02-16T19:17:46.434Z,83.13
2018-02-16T19:20:14.016Z,83.21
2018-02-16T19:22:41.629Z,83.42
2018-02-16T19:25:09.310Z,83.57
2018-02-16T19:27:36.931Z,83.56
2018-02-16T19:30:04.511Z,83.58
2018-02-16T19:32:32.241Z,83.63
2018-02-16T19:34:59.818Z,83.81
2018-02-16T19:37:27.518Z,84.25
2018-02-16T19:39:55.095Z,84.48
2018-02-16T19:42:22.666Z,84.25
2018-02-16T19:44:50.309Z,84.15
2018-02-16T19:47:17.883Z,84.06
2018-02-16T19:49:45.583Z,84.28
2018-02-16T19:52:13.158Z,84.61
2018-02-16T19:54:40.711Z,84.53
2018-02-16T19:57:08.346Z,84.36
2018-02-16T19:59:35.922Z,84.17
2018-02-16T20:02:03.687Z,84.17
2018-02-16T20:04:31.262Z,84.15
2018-02-16T20:06:58.840Z,84.27
2018-02-16T20:09:26.492Z,84.52
2018-02-16T20:11:54.121Z,84.71
2018-02-16T20:14:21.783Z,84.87
2018-02-16T20:16:49.391Z,85.06
2018-02-16T20:19:16.966Z,85.23
2018-02-16T20:21:44.561Z,85.44
2018-02-16T20:24:12.134Z,85.32
2018-02-16T20:26:39.761Z,85.17
2018-02-16T20:29:07.343Z,85.02
2018-02-16T20:31:34.991Z,85.19
2018-02-16T20:34:02.610Z,85.23
2018-02-16T20:36:30.195Z,85.18
2018-02-16T20:38:57.830Z,85.14
2018-02-16T20:41:25.407Z,85.18
2018-02-16T20:43:52.978Z,85.24
2018-02-16T20:46:20.543Z,85.27
2018-02-16T20:48:48.114Z,85.68
2018-02-16T20:51:15.749Z,85.96
2018-02-16T20:53:43.322Z,85.94
2018-02-16T20:56:10.923Z,85.89
2018-02-16T20:58:38.506Z,85.71
2018-02-16T21:01:06.076Z,85.33
2018-02-16T21:03:33.698Z,85.00
2018-02-16T21:06:01.311Z,84.80
2018-02-16T21:08:28.929Z,84.58
2018-02-16T21:10:56.567Z,84.54
2018-02-16T21:13:24.153Z,84.56
2018-02-16T21:15:51.779Z,84.77
2018-02-16T21:18:19.415Z,84.85
2018-02-16T21:20:47.051Z,85.00
2018-02-16T21:23:14.633Z,85.23
2018-02-16T21:25:42.217Z,85.17
2018-02-16T21:28:09.845Z,85.22
2018-02-16T21:30:37.422Z,85.42
2018-02-16T21:33:05.029Z,85.45
2018-02-16T21:35:32.707Z,85.53
2018-02-16T21:38:00.368Z,85.41
2018-02-16T21:40:28.048Z,85.31
2018-02-16T21:42:55.626Z,85.46
2018-02-16T21:45:23.198Z,85.63
2018-02-16T21:47:50.846Z,85.58
2018-02-16T21:50:18.479Z,85.74
2018-02-16T21:52:46.109Z,85.84
2018-02-16T21:55:13.678Z,85.83
2018-02-16T21:57:41.238Z,85.93
2018-02-16T22:00:08.858Z,86.03
2018-02-16T22:02:36.430Z,86.08
2018-02-16T22:05:04.059Z,85.98
2018-02-16T22:07:31.686Z,86.08
2018-02-16T22:09:59.249Z,86.56
2018-02-16T22:12:26.907Z,86.59
2018-02-16T22:14:54.430Z,86.50
2018-02-16T22:17:22.132Z,86.46
2018-02-16T22:19:49.708Z,86.27
2018-02-16T22:22:17.279Z,85.88
2018-02-16T22:24:44.918Z,85.64
2018-02-16T22:27:12.499Z,85.41
2018-02-16T22:29:40.127Z,85.17
2018-02-16T22:32:07.761Z,85.07
2018-02-16T22:34:35.340Z,85.23
2018-02-16T22:37:02.966Z,85.32
2018-02-16T22:39:30.606Z,85.69
2018-02-16T22:41:58.291Z,85.89
2018-02-16T22:44:25.914Z,86.06
2018-02-16T22:46:53.482Z,86.43
2018-02-16T22:49:21.065Z,86.69
2018-02-16T22:51:48.632Z,86.93
2018-02-16T22:54:16.202Z,87.09
2018-02-16T22:56:43.902Z,87.22
2018-02-16T22:59:11.530Z,87.14
2018-02-16T23:01:39.090Z,87.11
2018-02-16T23:04:06.662Z,87.10
2018-02-16T23:06:34.218Z,87.26
2018-02-16T23:09:01.846Z,87.26
2018-02-16T23:11:29.471Z,87.50
2018-02-16T23:13:57.029Z,87.69
2018-02-16T23:16:24.607Z,87.92
2018-02-16T23:18:52.189Z,88.00
2018-02-16T23:21:19.753Z,87.94
2018-02-16T23:23:47.390Z,87.94
2018-02-16T23:26:14.960Z,87.78
2018-02-16T23:28:42.522Z,87.49
2018-02-16T23:31:10.108Z,87.42
2018-02-16T23:33:37.735Z,87.35
2018-02-16T23:36:05.373Z,87.36
2018-02-16T23:38:33.014Z,87.46
2018-02-16T23:41:00.647Z,87.63
2018-02-16T23:43:28.162Z,87.58
2018-02-16T23:45:55.802Z,87.68
2018-02-16T23:48:23.442Z,87.90
2018-02-16T23:50:51.016Z,87.93
2018-02-16T23:53:18.591Z,87.80
2018-02-16T23:55:46.216Z,87.76
2018-02-16T23:58:13.890Z,87.92
